Time;durP1;ratioP1;P1;durP2;ratioP2;P2;SDS_P1;SDS_P2;PMS_P1;PMS_P2;Temp;Humidity;BMP_temperature;BMP_pressure;BME280_temperature;BME280_humidity;BME280_pressure;Samples;Min_cycle;Max_cycle;Signal;HPM_P1;HPM_P2
2022/08/02 00:02:03;;;;;;;2.10;1.40;;;20.30;99.40;;;;;;5017338;28;20203;-68
2022/08/02 00:04:33;;;;;;;2.13;1.38;;;20.20;99.60;;;;;;5014129;28;20270;-75
2022/08/02 00:07:05;;;;;;;1.27;1.10;;;20.20;99.80;;;;;;5013241;28;20303;-71
2022/08/02 00:09:33;;;;;;;2.10;1.30;;;20.20;99.90;;;;;;5014289;28;20211;-73
2022/08/02 00:12:00;;;;;;;2.97;1.60;;;20.10;99.90;;;;;;5017159;28;20245;-76
2022/08/02 00:14:26;;;;;;;3.47;1.45;;;20.10;99.90;;;;;;5013889;28;20238;-75
2022/08/02 00:16:54;;;;;;;2.22;1.40;;;20.10;99.90;;;;;;5016072;28;20175;-75
2022/08/02 00:19:20;;;;;;;2.63;1.60;;;20.10;99.90;;;;;;5015200;28;20213;-72
2022/08/02 00:21:47;;;;;;;1.80;1.50;;;20.10;99.90;;;;;;5013286;28;20234;-76
2022/08/02 00:24:13;;;;;;;1.80;1.30;;;20.00;99.90;;;;;;5012656;28;20178;-74
2022/08/02 00:26:41;;;;;;;1.42;1.30;;;20.00;99.90;;;;;;5015028;28;20203;-71
2022/08/02 00:29:07;;;;;;;2.05;1.48;;;20.00;99.90;;;;;;5011690;28;20174;-75
2022/08/02 00:31:35;;;;;;;2.10;1.60;;;20.00;99.90;;;;;;5012025;28;20198;-75
2022/08/02 00:34:03;;;;;;;2.28;1.60;;;19.90;99.90;;;;;;5014164;28;21145;-75
2022/08/02 00:36:31;;;;;;;2.45;1.30;;;19.90;99.90;;;;;;5015253;28;20273;-76
2022/08/02 00:39:00;;;;;;;1.70;1.50;;;19.90;99.90;;;;;;5015279;28;20183;-74
2022/08/02 00:41:26;;;;;;;1.75;1.35;;;19.80;99.90;;;;;;5011279;28;20199;-75
2022/08/02 00:43:52;;;;;;;3.03;1.63;;;19.80;99.90;;;;;;5010027;28;20185;-76
2022/08/02 00:46:21;;;;;;;2.85;1.70;;;19.70;99.90;;;;;;5011439;28;20186;-73
2022/08/02 00:48:54;;;;;;;2.15;1.55;;;19.70;99.90;;;;;;5010199;28;20175;-69
2022/08/02 00:51:20;;;;;;;1.88;1.60;;;19.60;99.90;;;;;;5016893;28;20210;-75
2022/08/02 00:53:48;;;;;;;2.35;1.45;;;19.60;99.90;;;;;;5014231;28;20325;-74
2022/08/02 00:56:18;;;;;;;2.17;1.40;;;19.50;99.90;;;;;;5009769;28;20195;-75
2022/08/02 00:58:44;;;;;;;1.98;1.38;;;19.50;99.90;;;;;;5013741;28;20183;-74
2022/08/02 01:01:10;;;;;;;2.08;1.42;;;19.40;99.90;;;;;;5013026;28;20453;-75
2022/08/02 01:03:43;;;;;;;1.60;1.50;;;19.50;99.90;;;;;;5011832;28;20175;-76
2022/08/02 01:06:09;;;;;;;2.05;1.42;;;19.40;99.90;;;;;;5010241;28;20187;-73
2022/08/02 01:08:40;;;;;;;1.90;1.40;;;19.40;99.90;;;;;;5010670;28;20270;-74
2022/08/02 01:11:06;;;;;;;1.80;1.60;;;19.40;99.90;;;;;;5008672;28;20191;-72
2022/08/02 01:13:32;;;;;;;2.55;1.50;;;19.40;99.90;;;;;;5011216;28;20202;-72
2022/08/02 01:16:10;;;;;;;1.80;1.30;;;19.40;99.90;;;;;;5010719;28;20241;-74
2022/08/02 01:18:44;;;;;;;1.92;1.38;;;19.40;99.90;;;;;;5012690;28;20286;-74
2022/08/02 01:22:02;;;;;;;2.55;1.60;;;19.40;99.90;;;;;;5011011;28;20256;-70
2022/08/02 01:24:54;;;;;;;1.92;1.40;;;19.40;99.90;;;;;;4975979;28;20181;-73
2022/08/02 01:27:36;;;;;;;2.40;1.60;;;19.40;99.90;;;;;;5007718;28;20214;-75
2022/08/02 01:30:03;;;;;;;1.60;1.50;;;19.40;99.90;;;;;;5011606;28;20190;-73
2022/08/02 01:32:35;;;;;;;2.00;1.80;;;19.40;99.90;;;;;;5012459;28;20225;-74
2022/08/02 01:35:08;;;;;;;2.38;1.48;;;19.40;99.90;;;;;;5013209;28;20198;-73
2022/08/02 01:37:39;;;;;;;2.53;1.55;;;19.40;99.90;;;;;;5013694;28;20179;-74
2022/08/02 01:40:15;;;;;;;2.00;1.40;;;19.40;99.90;;;;;;5012506;28;20207;-73
2022/08/02 01:42:47;;;;;;;1.75;1.33;;;19.40;99.90;;;;;;5010893;28;20202;-75
2022/08/02 01:45:14;;;;;;;1.60;1.20;;;19.40;99.90;;;;;;5012755;28;20229;-74
2022/08/02 01:47:47;;;;;;;1.80;1.38;;;19.40;99.90;;;;;;5011960;28;20179;-74
2022/08/02 01:50:16;;;;;;;3.10;1.42;;;19.40;99.90;;;;;;5010480;28;20183;-75
2022/08/02 01:52:50;;;;;;;2.85;1.42;;;19.40;99.90;;;;;;5010537;28;20199;-72
2022/08/02 01:55:23;;;;;;;2.08;1.58;;;19.40;99.90;;;;;;5012081;28;20199;-74
2022/08/02 01:57:57;;;;;;;2.15;1.30;;;19.40;99.90;;;;;;5010755;28;20187;-75
2022/08/02 02:00:29;;;;;;;2.40;1.50;;;19.30;99.90;;;;;;5011293;28;20215;-75
2022/08/02 02:02:57;;;;;;;3.63;1.60;;;19.30;99.90;;;;;;5011888;28;20176;-72
2022/08/02 02:05:26;;;;;;;1.90;1.50;;;19.30;99.90;;;;;;5005572;28;20214;-74
2022/08/02 02:07:56;;;;;;;1.85;1.23;;;19.30;99.90;;;;;;5012590;28;20195;-71
2022/08/02 02:10:30;;;;;;;2.38;1.70;;;19.30;99.90;;;;;;4999012;28;20221;-71
2022/08/02 02:13:01;;;;;;;1.85;1.45;;;19.30;99.90;;;;;;5010656;28;20201;-74
2022/08/02 02:15:29;;;;;;;1.90;1.70;;;19.30;99.90;;;;;;5012214;28;20207;-72
2022/08/02 02:17:59;;;;;;;2.47;1.60;;;19.30;99.90;;;;;;5013033;28;20267;-72
2022/08/02 02:20:27;;;;;;;2.05;1.52;;;19.30;99.90;;;;;;5013246;28;20219;-75
2022/08/02 02:22:53;;;;;;;2.17;1.40;;;19.30;99.90;;;;;;5011064;28;20242;-72
2022/08/02 02:25:21;;;;;;;2.03;1.52;;;19.30;99.90;;;;;;5010445;28;20215;-72
2022/08/02 02:28:08;;;;;;;2.00;1.65;;;19.30;99.90;;;;;;5029898;28;20197;-74
2022/08/02 02:30:38;;;;;;;2.00;1.52;;;19.30;99.90;;;;;;5010708;28;20191;-71
2022/08/02 02:33:06;;;;;;;1.77;1.40;;;19.20;99.90;;;;;;5015384;28;20238;-74
2022/08/02 02:35:35;;;;;;;2.17;1.42;;;19.20;99.90;;;;;;5012001;28;20184;-70
2022/08/02 02:38:05;;;;;;;2.08;1.40;;;19.20;99.90;;;;;;5012464;28;20207;-69
2022/08/02 02:40:33;;;;;;;2.38;1.50;;;19.20;99.90;;;;;;5008080;28;20285;-74
2022/08/02 02:43:02;;;;;;;2.25;1.60;;;19.20;99.90;;;;;;5012943;28;20175;-73
2022/08/02 02:45:29;;;;;;;3.20;1.40;;;19.20;99.90;;;;;;5009476;28;20199;-72
2022/08/02 02:47:55;;;;;;;1.52;1.40;;;19.20;99.90;;;;;;5010449;28;20174;-72
2022/08/02 02:50:22;;;;;;;2.20;1.58;;;19.20;99.90;;;;;;5008973;28;20274;-75
2022/08/02 02:52:49;;;;;;;1.67;1.50;;;19.10;99.90;;;;;;5010061;28;20214;-73
2022/08/02 02:55:18;;;;;;;2.13;1.85;;;19.10;99.90;;;;;;5013881;28;20179;-74
2022/08/02 02:57:45;;;;;;;2.00;1.50;;;19.10;99.90;;;;;;5009974;28;20182;-72
2022/08/02 03:00:13;;;;;;;2.15;1.40;;;19.10;99.90;;;;;;5011626;28;20211;-74
2022/08/02 03:02:45;;;;;;;2.83;1.52;;;19.00;99.90;;;;;;5002732;28;20179;-73
2022/08/02 03:05:11;;;;;;;2.10;1.40;;;19.00;99.90;;;;;;5007322;28;20176;-75
2022/08/02 03:07:38;;;;;;;1.70;1.55;;;19.00;99.90;;;;;;5011745;28;20221;-74
2022/08/02 03:10:07;;;;;;;2.00;1.63;;;19.00;99.90;;;;;;5009950;28;20232;-73
2022/08/02 03:12:34;;;;;;;2.08;1.17;;;19.00;99.90;;;;;;5008428;28;20194;-72
2022/08/02 03:15:05;;;;;;;1.77;1.38;;;19.00;99.90;;;;;;5010048;28;20213;-70
2022/08/02 03:17:47;;;;;;;1.30;1.20;;;19.00;99.90;;;;;;5009721;28;20194;-72
2022/08/02 03:20:15;;;;;;;1.88;1.40;;;18.90;99.90;;;;;;5001505;28;20210;-70
2022/08/02 03:22:41;;;;;;;2.13;1.50;;;18.90;99.90;;;;;;4996070;28;20187;-70
2022/08/02 03:25:08;;;;;;;2.55;1.63;;;18.90;99.90;;;;;;5009798;28;20176;-70
2022/08/02 03:27:34;;;;;;;1.85;1.40;;;18.90;99.90;;;;;;5006227;28;20218;-69
2022/08/02 03:30:00;;;;;;;2.60;1.55;;;18.80;99.90;;;;;;5012208;28;20178;-70
2022/08/02 03:32:26;;;;;;;1.75;1.27;;;18.80;99.90;;;;;;5023968;28;20182;-71
2022/08/02 03:34:52;;;;;;;2.67;1.42;;;18.80;99.90;;;;;;5009471;28;20201;-70
2022/08/02 03:37:21;;;;;;;1.60;1.50;;;18.80;99.90;;;;;;5008504;28;20203;-71
2022/08/02 03:39:48;;;;;;;2.42;1.40;;;18.70;99.90;;;;;;5007810;28;20214;-72
2022/08/02 03:42:17;;;;;;;2.65;2.00;;;18.70;99.90;;;;;;5011526;28;20187;-71
2022/08/02 03:44:42;;;;;;;2.53;2.08;;;18.70;99.90;;;;;;5009564;28;20171;-71
2022/08/02 03:47:08;;;;;;;2.72;2.30;;;18.70;99.90;;;;;;5007824;28;20549;-71
2022/08/02 03:49:36;;;;;;;3.25;2.30;;;18.60;99.90;;;;;;5007573;28;20270;-70
2022/08/02 03:52:02;;;;;;;1.83;1.73;;;18.70;99.90;;;;;;5024956;28;20287;-71
2022/08/02 03:54:28;;;;;;;2.60;2.38;;;18.60;99.90;;;;;;5009506;28;20203;-71
2022/08/02 03:56:54;;;;;;;2.72;2.20;;;18.60;99.90;;;;;;5008317;28;20182;-72
2022/08/02 03:59:20;;;;;;;2.33;2.10;;;18.60;99.90;;;;;;5015909;28;20286;-71
2022/08/02 04:01:48;;;;;;;4.65;2.50;;;18.60;99.90;;;;;;5016803;28;20274;-71
2022/08/02 04:04:13;;;;;;;3.15;2.05;;;18.60;99.90;;;;;;5015084;28;20185;-70
2022/08/02 04:06:41;;;;;;;3.28;2.60;;;18.60;99.90;;;;;;5008038;28;20274;-71
2022/08/02 04:09:09;;;;;;;2.88;2.42;;;18.60;99.90;;;;;;5012698;28;20248;-71
2022/08/02 04:11:36;;;;;;;5.53;3.38;;;18.60;99.90;;;;;;5009374;28;20246;-71
2022/08/02 04:14:11;;;;;;;3.70;2.78;;;18.60;99.90;;;;;;5013028;28;20179;-70
2022/08/02 04:16:59;;;;;;;4.38;2.67;;;18.60;99.90;;;;;;5005637;28;20175;-71
2022/08/02 04:19:30;;;;;;;3.55;2.35;;;18.60;99.90;;;;;;5006747;28;20215;-70
2022/08/02 04:21:58;;;;;;;2.35;2.05;;;18.60;99.90;;;;;;5006650;28;20187;-71
2022/08/02 04:24:35;;;;;;;2.15;1.92;;;18.60;99.90;;;;;;5007847;28;20199;-71
2022/08/02 04:27:02;;;;;;;3.40;2.00;;;18.60;99.90;;;;;;5011039;28;20178;-71
2022/08/02 04:29:32;;;;;;;3.03;1.98;;;18.60;99.90;;;;;;5008223;28;20202;-70
2022/08/02 04:31:58;;;;;;;4.07;1.83;;;18.60;99.90;;;;;;5010603;28;20179;-71
2022/08/02 04:34:26;;;;;;;2.25;1.70;;;18.60;99.90;;;;;;5008952;28;20178;-71
2022/08/02 04:36:55;;;;;;;2.58;2.20;;;18.60;99.90;;;;;;5010175;28;20218;-71
2022/08/02 04:39:21;;;;;;;3.65;3.00;;;18.60;99.90;;;;;;5006005;28;20209;-71
2022/08/02 04:41:46;;;;;;;3.53;2.67;;;18.60;99.90;;;;;;5022613;28;20178;-70
2022/08/02 04:44:13;;;;;;;2.85;2.47;;;18.60;99.90;;;;;;5004557;28;20274;-70
2022/08/02 04:46:40;;;;;;;2.55;1.98;;;18.60;99.90;;;;;;5006292;28;20189;-71
2022/08/02 04:49:08;;;;;;;3.17;2.13;;;18.70;99.90;;;;;;5005698;28;20338;-70
2022/08/02 04:51:35;;;;;;;3.03;2.03;;;18.70;99.90;;;;;;5022496;28;20175;-72
2022/08/02 04:54:06;;;;;;;2.03;1.70;;;18.70;99.90;;;;;;5007480;28;20179;-71
2022/08/02 04:56:31;;;;;;;2.70;1.92;;;18.70;99.90;;;;;;5006926;28;20203;-72
2022/08/02 04:58:57;;;;;;;2.67;1.77;;;18.70;99.90;;;;;;5007065;28;20185;-71
2022/08/02 05:01:23;;;;;;;1.80;1.70;;;18.70;99.90;;;;;;5005650;28;20305;-71
2022/08/02 05:03:51;;;;;;;2.50;1.73;;;18.70;99.90;;;;;;5004647;28;20201;-70
2022/08/02 05:06:18;;;;;;;2.45;1.83;;;18.70;99.90;;;;;;5005684;28;20198;-71
2022/08/02 05:08:49;;;;;;;2.35;1.90;;;18.70;99.90;;;;;;5005108;28;20207;-72
2022/08/02 05:11:19;;;;;;;2.17;1.80;;;18.70;99.90;;;;;;5008519;28;20183;-71
2022/08/02 05:13:45;;;;;;;2.53;1.83;;;18.70;99.90;;;;;;5011511;28;20193;-67
2022/08/02 05:16:10;;;;;;;2.13;1.77;;;18.70;99.90;;;;;;5006298;28;20179;-67
2022/08/02 05:18:36;;;;;;;2.20;2.00;;;18.80;99.90;;;;;;5005843;28;20185;-67
2022/08/02 05:21:04;;;;;;;4.63;2.10;;;18.80;99.90;;;;;;5000049;28;20228;-67
2022/08/02 05:23:32;;;;;;;3.92;2.40;;;18.80;99.90;;;;;;5008408;28;20174;-68
2022/08/02 05:26:00;;;;;;;2.67;1.95;;;18.90;99.90;;;;;;5008975;28;20183;-67
2022/08/02 05:28:26;;;;;;;3.53;2.45;;;18.90;99.90;;;;;;5005916;28;20171;-67
2022/08/02 05:30:51;;;;;;;3.65;2.35;;;19.00;99.90;;;;;;5009926;28;20198;-67
2022/08/02 05:33:19;;;;;;;2.90;2.40;;;19.00;99.90;;;;;;4999294;28;20203;-67
2022/08/02 05:35:47;;;;;;;2.92;2.10;;;19.10;99.90;;;;;;5007569;28;20247;-64
2022/08/02 05:38:14;;;;;;;2.78;2.10;;;19.10;99.90;;;;;;4999111;28;20183;-69
2022/08/02 05:40:42;;;;;;;2.72;2.00;;;19.20;99.90;;;;;;5001753;28;20203;-67
2022/08/02 05:43:13;;;;;;;3.47;2.20;;;19.20;99.90;;;;;;5015551;28;20171;-67
2022/08/02 05:45:39;;;;;;;2.80;2.10;;;19.30;99.90;;;;;;5023166;28;20218;-67
2022/08/02 05:48:05;;;;;;;4.22;2.40;;;19.30;99.90;;;;;;5005684;28;20167;-67
2022/08/02 05:50:38;;;;;;;3.72;2.30;;;19.40;99.90;;;;;;5002036;28;20206;-67
2022/08/02 05:53:18;;;;;;;2.38;2.13;;;19.50;99.90;;;;;;5006217;28;20285;-66
2022/08/02 05:56:08;;;;;;;3.97;2.25;;;19.50;99.90;;;;;;5004068;28;20211;-67
2022/08/02 05:58:55;;;;;;;4.80;2.30;;;19.60;99.90;;;;;;5008529;28;20239;-67
2022/08/02 06:01:37;;;;;;;2.25;2.00;;;19.70;99.90;;;;;;5008772;28;20211;-69
2022/08/02 06:04:09;;;;;;;4.10;2.30;;;19.70;99.90;;;;;;5003668;28;20183;-73
2022/08/02 06:06:36;;;;;;;3.55;2.22;;;19.80;99.90;;;;;;5000616;28;20247;-67
2022/08/02 06:09:14;;;;;;;2.35;2.15;;;19.80;99.90;;;;;;5036119;28;20186;-67
2022/08/02 06:11:46;;;;;;;2.88;1.95;;;19.90;99.90;;;;;;5011105;28;20268;-67
2022/08/02 06:14:15;;;;;;;2.40;1.95;;;19.90;99.90;;;;;;5009814;28;20179;-67
2022/08/02 06:16:45;;;;;;;2.30;1.92;;;19.90;99.90;;;;;;4998911;28;20223;-67
2022/08/02 06:19:11;;;;;;;3.45;2.03;;;20.00;99.90;;;;;;5000540;28;20186;-70
2022/08/02 06:21:41;;;;;;;3.58;1.90;;;20.00;99.90;;;;;;4998424;28;20186;-72
2022/08/02 06:24:12;;;;;;;8.35;2.30;;;20.10;99.90;;;;;;5012060;28;20190;-73
2022/08/02 06:26:41;;;;;;;2.40;2.08;;;20.10;99.90;;;;;;4997931;28;20243;-70
2022/08/02 06:29:08;;;;;;;3.10;2.08;;;20.20;99.90;;;;;;5002914;28;20240;-71
2022/08/02 06:31:35;;;;;;;3.55;2.13;;;20.20;99.90;;;;;;5002064;28;20202;-71
2022/08/02 06:34:03;;;;;;;6.78;2.03;;;20.20;99.90;;;;;;5010955;28;20186;-71
2022/08/02 06:36:57;;;;;;;3.13;2.10;;;20.30;99.90;;;;;;5003709;28;20226;-71
2022/08/02 06:39:50;;;;;;;2.10;1.80;;;20.30;99.90;;;;;;5009686;28;20206;-71
2022/08/02 06:42:32;;;;;;;4.85;1.92;;;20.30;99.90;;;;;;5007770;28;20239;-71
2022/08/02 06:44:58;;;;;;;2.83;2.05;;;20.40;99.90;;;;;;5005425;28;20186;-71
2022/08/02 06:47:24;;;;;;;2.10;1.70;;;20.40;99.90;;;;;;5004407;28;20176;-71
2022/08/02 06:49:52;;;;;;;2.50;1.70;;;20.50;99.90;;;;;;5008260;28;20183;-72
2022/08/02 06:52:18;;;;;;;3.05;2.05;;;20.50;99.90;;;;;;5001833;28;20213;-71
2022/08/02 06:54:46;;;;;;;3.20;1.85;;;20.60;99.90;;;;;;5004171;28;20187;-71
2022/08/02 06:57:11;;;;;;;1.80;1.70;;;20.60;99.90;;;;;;5003128;28;20240;-72
2022/08/02 06:59:39;;;;;;;3.00;1.83;;;20.70;99.90;;;;;;5003114;28;20203;-73
2022/08/02 07:02:07;;;;;;;2.75;1.80;;;20.80;99.90;;;;;;5003179;28;20179;-73
2022/08/02 07:04:33;;;;;;;3.72;1.77;;;20.90;99.90;;;;;;5020607;28;20198;-69
2022/08/02 07:07:00;;;;;;;3.33;1.90;;;20.90;99.90;;;;;;5004728;28;20270;-71
2022/08/02 07:09:26;;;;;;;2.95;1.83;;;21.00;99.90;;;;;;5001401;28;20281;-71
2022/08/02 07:11:52;;;;;;;2.38;1.80;;;21.10;99.90;;;;;;5000237;28;20204;-71
2022/08/02 07:14:17;;;;;;;2.35;1.95;;;21.10;99.90;;;;;;5004338;28;20269;-71
2022/08/02 07:16:43;;;;;;;2.05;1.40;;;21.20;99.90;;;;;;5001837;28;20281;-71
2022/08/02 07:19:11;;;;;;;2.90;1.85;;;21.30;99.90;;;;;;5002799;28;20204;-71
2022/08/02 07:21:36;;;;;;;2.15;1.45;;;21.40;99.90;;;;;;5003151;28;20185;-71
2022/08/02 07:24:02;;;;;;;3.55;1.80;;;21.50;99.90;;;;;;5000043;28;20285;-71
2022/08/02 07:26:28;;;;;;;2.28;1.77;;;21.60;99.90;;;;;;5001279;28;20202;-70
2022/08/02 07:28:58;;;;;;;2.05;1.63;;;21.60;99.90;;;;;;5002089;28;20269;-71
2022/08/02 07:31:24;;;;;;;13.05;1.70;;;21.70;99.90;;;;;;5000459;28;20214;-71
2022/08/02 07:33:52;;;;;;;1.65;1.40;;;21.80;99.90;;;;;;5006271;28;20190;-70
2022/08/02 07:36:18;;;;;;;1.60;1.35;;;21.90;99.90;;;;;;5010825;28;20191;-71
2022/08/02 07:38:48;;;;;;;1.95;1.75;;;22.00;99.90;;;;;;4990366;28;20190;-71
2022/08/02 07:41:14;;;;;;;2.03;1.38;;;22.10;99.90;;;;;;4997081;28;20257;-72
2022/08/02 07:43:40;;;;;;;2.80;1.45;;;22.20;99.90;;;;;;4998021;28;20198;-71
2022/08/02 07:46:05;;;;;;;2.25;1.50;;;22.30;99.90;;;;;;4992148;28;20171;-71
2022/08/02 07:48:31;;;;;;;1.75;1.55;;;22.40;99.90;;;;;;4999927;28;20194;-70
2022/08/02 07:50:56;;;;;;;2.35;1.77;;;22.50;99.90;;;;;;5001438;28;20294;-71
2022/08/02 07:53:22;;;;;;;3.33;1.83;;;22.60;99.90;;;;;;4998637;28;20188;-71
2022/08/02 07:55:48;;;;;;;2.55;1.70;;;22.70;99.90;;;;;;4997619;28;20190;-72
2022/08/02 07:58:15;;;;;;;1.98;1.60;;;22.80;99.90;;;;;;5001814;28;20214;-71
2022/08/02 08:00:43;;;;;;;2.03;1.50;;;22.90;99.90;;;;;;5002121;28;20207;-70
2022/08/02 08:03:09;;;;;;;3.70;1.60;;;23.00;99.90;;;;;;5003103;28;20171;-70
2022/08/02 08:05:35;;;;;;;2.33;1.55;;;23.20;99.90;;;;;;4999906;28;20175;-70
2022/08/02 08:08:04;;;;;;;2.28;1.50;;;23.30;99.90;;;;;;5005514;28;20237;-71
2022/08/02 08:10:33;;;;;;;1.40;1.30;;;23.40;99.90;;;;;;5002011;28;20204;-70
2022/08/02 08:12:58;;;;;;;2.42;1.30;;;23.50;99.90;;;;;;5010806;28;20186;-71
2022/08/02 08:15:24;;;;;;;1.85;1.27;;;23.70;99.90;;;;;;5006742;28;20318;-71
2022/08/02 08:17:50;;;;;;;1.35;1.13;;;23.80;99.90;;;;;;5004926;28;20219;-70
2022/08/02 08:20:17;;;;;;;1.85;1.50;;;23.90;99.90;;;;;;5007828;28;20203;-71
2022/08/02 08:22:46;;;;;;;1.45;1.30;;;24.00;99.90;;;;;;5006730;28;20198;-71
2022/08/02 08:25:12;;;;;;;2.97;1.42;;;24.10;99.90;;;;;;5009252;28;20211;-71
2022/08/02 08:27:46;;;;;;;2.00;1.52;;;24.10;99.90;;;;;;5005317;28;20182;-71
2022/08/02 08:30:14;;;;;;;4.43;1.45;;;24.20;99.90;;;;;;5004793;28;20191;-71
2022/08/02 08:32:39;;;;;;;2.85;1.50;;;24.30;99.90;;;;;;5009886;28;20194;-70
2022/08/02 08:35:06;;;;;;;2.10;1.38;;;24.30;99.90;;;;;;5006944;28;20266;-69
2022/08/02 08:37:38;;;;;;;1.42;1.33;;;24.40;99.90;;;;;;5009038;28;20199;-72
2022/08/02 08:40:07;;;;;;;1.88;1.40;;;24.50;99.90;;;;;;5003977;28;20199;-71
2022/08/02 08:42:36;;;;;;;2.05;1.50;;;24.60;99.90;;;;;;5014131;28;20244;-71
2022/08/02 08:45:08;;;;;;;2.17;1.60;;;24.70;99.90;;;;;;5007049;28;20454;-72
2022/08/02 08:47:41;;;;;;;1.40;1.10;;;24.80;99.90;;;;;;5013672;28;20179;-70
2022/08/02 08:50:09;;;;;;;1.40;1.25;;;24.90;99.90;;;;;;5008306;28;20190;-71
2022/08/02 08:52:46;;;;;;;3.22;1.33;;;25.00;99.90;;;;;;5011951;28;20202;-70
2022/08/02 08:55:13;;;;;;;1.73;1.30;;;25.10;99.90;;;;;;5009009;28;20193;-72
2022/08/02 08:57:44;;;;;;;2.67;1.30;;;25.20;99.90;;;;;;5011182;28;20220;-71
2022/08/02 09:00:12;;;;;;;2.10;1.50;;;25.30;99.90;;;;;;5004966;28;20207;-70
2022/08/02 09:02:41;;;;;;;2.70;1.35;;;25.40;99.90;;;;;;5009959;28;20178;-71
2022/08/02 09:05:12;;;;;;;2.17;1.50;;;25.50;99.90;;;;;;5003307;28;20192;-71
2022/08/02 09:07:40;;;;;;;2.10;1.40;;;25.70;99.90;;;;;;5007999;28;20175;-71
2022/08/02 09:10:34;;;;;;;2.42;1.20;;;25.80;99.90;;;;;;5006385;28;20175;-72
2022/08/02 09:13:16;;;;;;;2.80;1.27;;;26.00;99.90;;;;;;5009619;28;20171;-71
2022/08/02 09:15:44;;;;;;;2.33;1.27;;;26.10;99.90;;;;;;5006351;28;20199;-70
2022/08/02 09:18:10;;;;;;;3.25;1.40;;;26.20;99.90;;;;;;5000604;28;20203;-70
2022/08/02 09:20:58;;;;;;;1.30;1.20;;;26.30;99.90;;;;;;5013176;28;20195;-68
2022/08/02 09:23:25;;;;;;;1.90;1.40;;;26.40;99.90;;;;;;5007004;28;20184;-71
2022/08/02 09:26:03;;;;;;;1.50;1.20;;;26.40;99.90;;;;;;5010091;28;20195;-72
2022/08/02 09:28:31;;;;;;;1.80;1.30;;;26.50;99.90;;;;;;5010535;28;20446;-71
2022/08/02 09:31:08;;;;;;;2.38;1.20;;;26.50;99.90;;;;;;5010903;28;20270;-71
2022/08/02 09:33:34;;;;;;;1.73;1.20;;;26.50;99.90;;;;;;5028136;28;20213;-70
2022/08/02 09:36:00;;;;;;;1.40;1.17;;;26.60;99.90;;;;;;5006525;28;20236;-71
2022/08/02 09:38:27;;;;;;;1.23;1.05;;;26.60;99.90;;;;;;5016807;28;20211;-72
2022/08/02 09:40:55;;;;;;;1.75;1.20;;;26.70;99.90;;;;;;5007497;28;20278;-74
2022/08/02 09:43:40;;;;;;;0.80;0.80;;;26.70;99.80;;;;;;5010418;28;20202;-71
2022/08/02 09:46:13;;;;;;;1.42;1.33;;;26.80;99.40;;;;;;5007171;28;20202;-73
2022/08/02 09:49:04;;;;;;;2.05;1.15;;;26.90;99.10;;;;;;5032167;28;20182;-72
2022/08/02 09:51:35;;;;;;;1.52;1.20;;;27.00;98.70;;;;;;5009895;28;20210;-74
2022/08/02 09:54:07;;;;;;;2.55;1.30;;;27.10;98.20;;;;;;5010096;28;20255;-71
2022/08/02 09:56:42;;;;;;;1.77;1.20;;;27.20;97.40;;;;;;5004661;28;20191;-72
2022/08/02 09:59:10;;;;;;;1.10;0.93;;;27.30;97.20;;;;;;5016315;28;20186;-72
2022/08/02 10:01:37;;;;;;;1.67;1.20;;;27.40;97.30;;;;;;5010495;28;20234;-71
2022/08/02 10:04:05;;;;;;;1.75;1.00;;;27.40;96.60;;;;;;5015078;28;20440;-73
2022/08/02 10:06:32;;;;;;;1.52;1.10;;;27.50;96.20;;;;;;5010370;28;20217;-73
2022/08/02 10:08:58;;;;;;;1.10;1.00;;;27.60;96.10;;;;;;5002944;28;20504;-72
2022/08/02 10:11:26;;;;;;;1.25;1.00;;;27.70;96.00;;;;;;5005335;28;20241;-72
2022/08/02 10:13:55;;;;;;;1.10;1.00;;;27.80;95.70;;;;;;5004023;28;20193;-74
2022/08/02 10:16:24;;;;;;;1.45;1.30;;;27.80;95.30;;;;;;5011028;28;20290;-72
2022/08/02 10:18:58;;;;;;;1.55;1.05;;;27.90;95.00;;;;;;5007422;28;20337;-72
2022/08/02 10:21:32;;;;;;;1.25;1.10;;;27.90;95.20;;;;;;5010218;28;20197;-72
2022/08/02 10:24:21;;;;;;;1.52;1.20;;;27.90;95.00;;;;;;5001291;28;20255;-73
2022/08/02 10:26:47;;;;;;;1.30;1.20;;;27.90;94.50;;;;;;5000694;28;20164;-73
2022/08/02 10:29:21;;;;;;;1.55;1.05;;;28.00;94.60;;;;;;5004156;28;20207;-73
2022/08/02 10:32:12;;;;;;;1.20;1.00;;;28.10;94.20;;;;;;4984665;28;20179;-72
2022/08/02 10:34:46;;;;;;;1.58;1.30;;;28.30;94.20;;;;;;5007237;28;20211;-72
2022/08/02 10:37:13;;;;;;;1.88;0.90;;;28.50;94.20;;;;;;5022766;28;20175;-72
2022/08/02 10:39:43;;;;;;;1.13;1.00;;;28.70;93.70;;;;;;4998805;28;20203;-73
2022/08/02 10:42:12;;;;;;;1.20;1.10;;;28.80;93.80;;;;;;5007284;28;20191;-71
2022/08/02 10:44:38;;;;;;;1.15;1.05;;;28.80;92.70;;;;;;5008018;28;20210;-72
2022/08/02 10:47:13;;;;;;;1.00;0.90;;;28.80;92.80;;;;;;5005508;28;20229;-74
2022/08/02 10:49:54;;;;;;;1.30;1.10;;;28.90;92.30;;;;;;5003238;28;20182;-73
2022/08/02 10:52:23;;;;;;;1.55;1.00;;;29.00;91.10;;;;;;5016186;28;20273;-72
2022/08/02 10:54:54;;;;;;;1.52;1.10;;;29.10;92.20;;;;;;5012950;28;20194;-72
2022/08/02 10:57:25;;;;;;;1.20;1.05;;;29.20;91.50;;;;;;5005408;28;20214;-73
2022/08/02 10:59:59;;;;;;;1.20;1.10;;;29.30;91.40;;;;;;5007806;28;20221;-73
2022/08/02 11:02:39;;;;;;;1.30;1.10;;;29.50;90.50;;;;;;5007543;28;20198;-71
2022/08/02 11:05:33;;;;;;;2.13;1.10;;;29.70;90.10;;;;;;5010748;28;20175;-72
2022/08/02 11:08:17;;;;;;;1.35;1.17;;;29.90;90.10;;;;;;5011887;28;20480;-75
2022/08/02 11:10:45;;;;;;;1.80;1.25;;;30.20;87.90;;;;;;5015088;28;20198;-73
2022/08/02 11:13:16;;;;;;;1.27;1.10;;;30.30;87.60;;;;;;5009401;28;20187;-73
2022/08/02 11:16:03;;;;;;;1.10;1.00;;;30.20;86.00;;;;;;5006795;28;20175;-71
2022/08/02 11:18:54;;;;;;;1.17;1.00;;;30.20;86.10;;;;;;5010895;28;20203;-73
2022/08/02 11:21:34;;;;;;;1.10;0.90;;;30.10;84.10;;;;;;5010033;28;20210;-72
2022/08/02 11:24:26;;;;;;;2.17;1.10;;;30.20;82.30;;;;;;5015578;28;20194;-68
2022/08/02 11:26:54;;;;;;;1.30;1.10;;;30.20;82.20;;;;;;5019977;28;20156;-73
2022/08/02 11:29:20;;;;;;;1.75;1.10;;;30.10;81.40;;;;;;5018733;28;20205;-71
2022/08/02 11:31:46;;;;;;;1.02;0.93;;;30.20;81.80;;;;;;5019535;28;20204;-73
2022/08/02 11:34:12;;;;;;;1.75;1.08;;;30.30;81.60;;;;;;5019678;28;20192;-72
2022/08/02 11:36:49;;;;;;;1.00;0.90;;;30.30;80.20;;;;;;5019878;28;20174;-74
2022/08/02 11:39:19;;;;;;;1.23;0.90;;;30.40;79.40;;;;;;5018337;28;20170;-74
2022/08/02 11:41:56;;;;;;;0.85;0.80;;;30.50;79.30;;;;;;5017231;28;20179;-73
2022/08/02 11:44:23;;;;;;;1.30;1.10;;;30.70;75.00;;;;;;5002569;28;20209;-74
2022/08/02 11:47:00;;;;;;;1.38;1.00;;;30.80;79.10;;;;;;5030212;28;20182;-73
2022/08/02 11:49:30;;;;;;;1.42;1.05;;;31.00;77.10;;;;;;5018306;28;20198;-75
2022/08/02 11:52:05;;;;;;;1.40;1.10;;;31.30;79.50;;;;;;5027615;28;20171;-73
2022/08/02 11:54:39;;;;;;;1.15;0.80;;;31.50;74.30;;;;;;5023244;28;20188;-73
2022/08/02 11:57:23;;;;;;;1.70;0.90;;;31.70;77.20;;;;;;5020172;28;20227;-75
2022/08/02 11:59:58;;;;;;;1.85;1.02;;;32.00;73.30;;;;;;5023574;28;20237;-73
2022/08/02 12:02:34;;;;;;;1.20;1.00;;;32.10;73.20;;;;;;5024001;28;20194;-71
2022/08/02 12:05:14;;;;;;;1.10;1.00;;;31.90;71.80;;;;;;5026406;28;20166;-75
2022/08/02 12:07:39;;;;;;;1.10;0.80;;;31.90;71.40;;;;;;5024469;28;20205;-72
2022/08/02 12:10:11;;;;;;;1.77;0.90;;;31.90;73.40;;;;;;5024166;28;20206;-72
2022/08/02 12:12:55;;;;;;;1.00;0.80;;;31.90;72.90;;;;;;5024116;28;20273;-75
2022/08/02 12:15:40;;;;;;;1.50;1.08;;;32.10;69.10;;;;;;5022888;28;20248;-72
2022/08/02 12:21:02;;;;;;;1.00;0.80;;;32.20;68.20;;;;;;5024897;28;20253;-71
2022/08/02 12:23:31;;;;;;;0.80;0.80;;;32.30;69.80;;;;;;5025521;28;20204;-73
2022/08/02 12:26:05;;;;;;;1.05;0.95;;;32.30;68.70;;;;;;5025398;28;20182;-72
2022/08/02 12:28:40;;;;;;;1.38;0.88;;;32.30;68.30;;;;;;5037086;28;20216;-69
2022/08/02 12:31:10;;;;;;;0.82;0.82;;;32.40;67.00;;;;;;5023097;28;20193;-72
2022/08/02 12:33:47;;;;;;;1.27;0.82;;;32.40;65.20;;;;;;5022032;28;20203;-73
2022/08/02 12:36:19;;;;;;;1.63;0.80;;;32.50;65.50;;;;;;5023377;28;20213;-74
2022/08/02 12:38:53;;;;;;;1.02;0.90;;;32.60;64.90;;;;;;5021121;28;20188;-74
2022/08/02 12:41:19;;;;;;;0.85;0.82;;;32.70;64.50;;;;;;5026140;28;20178;-74
2022/08/02 12:43:44;;;;;;;1.73;0.85;;;32.80;65.70;;;;;;5020153;28;20182;-70
2022/08/02 12:46:21;;;;;;;1.02;0.80;;;32.90;65.00;;;;;;5023095;28;20229;-73
2022/08/02 12:48:49;;;;;;;1.00;0.90;;;32.90;62.90;;;;;;5020100;28;20210;-71
2022/08/02 12:51:24;;;;;;;1.20;1.05;;;32.90;63.30;;;;;;5025485;28;20186;-70
2022/08/02 12:53:56;;;;;;;1.35;1.10;;;32.90;62.10;;;;;;5026974;28;20245;-70
2022/08/02 12:56:32;;;;;;;1.00;0.90;;;32.90;63.40;;;;;;5022447;28;20209;-74
2022/08/02 12:58:58;;;;;;;1.33;1.10;;;33.00;62.70;;;;;;5027157;28;20225;-76
2022/08/02 13:01:26;;;;;;;1.10;1.00;;;32.90;62.10;;;;;;5035600;28;20240;-74
2022/08/02 13:03:55;;;;;;;1.90;0.93;;;32.80;61.40;;;;;;5033911;28;20275;-75
2022/08/02 13:06:22;;;;;;;1.23;1.10;;;32.70;61.90;;;;;;5015624;28;20159;-73
2022/08/02 13:08:53;;;;;;;2.22;1.20;;;32.60;60.90;;;;;;5016046;28;20183;-74